createdAt,value
2023-01-02T00:00:20.722Z,12.34
2023-01-02T00:01:14.583Z,12.31
2023-01-02T00:02:14.513Z,12.34
2023-01-02T00:03:14.799Z,12.38
2023-01-02T00:04:14.505Z,12.38
2023-01-02T00:05:14.545Z,12.46
2023-01-02T00:06:14.512Z,12.49
2023-01-02T00:07:14.493Z,12.46
2023-01-02T00:08:14.593Z,12.51
2023-01-02T00:09:14.475Z,12.54
2023-01-02T00:10:14.444Z,12.57
2023-01-02T00:11:14.566Z,12.52
2023-01-02T00:12:14.407Z,12.59
2023-01-02T00:13:14.581Z,12.54
2023-01-02T00:14:14.583Z,12.63
2023-01-02T00:15:14.427Z,12.56
2023-01-02T00:16:14.436Z,12.62
2023-01-02T00:17:14.373Z,12.62
2023-01-02T00:18:14.537Z,12.63
2023-01-02T00:19:14.364Z,12.66
2023-01-02T00:20:14.605Z,12.67
2023-01-02T00:21:14.338Z,12.77
2023-01-02T00:22:14.338Z,12.74
2023-01-02T00:23:14.375Z,12.74
2023-01-02T00:24:14.346Z,12.66
2023-01-02T00:25:14.291Z,12.71
2023-01-02T00:26:14.350Z,12.71
2023-01-02T00:27:14.451Z,12.64
2023-01-02T00:28:14.371Z,12.69
2023-01-02T00:29:14.445Z,12.66
2023-01-02T00:30:14.207Z,12.63
2023-01-02T00:31:14.537Z,12.66
2023-01-02T00:32:14.320Z,12.63
2023-01-02T00:33:14.321Z,12.63
2023-01-02T00:34:14.331Z,12.64
2023-01-02T00:35:14.415Z,12.69
2023-01-02T00:36:14.426Z,12.69
2023-01-02T00:37:14.347Z,12.71
2023-01-02T00:38:14.348Z,12.69
2023-01-02T00:39:14.333Z,12.75
2023-01-02T00:40:14.337Z,12.82
2023-01-02T00:41:14.286Z,12.88
2023-01-02T00:42:14.366Z,12.87
2023-01-02T00:43:14.226Z,12.97
2023-01-02T00:44:14.302Z,13.02
2023-01-02T00:45:14.293Z,13.02
2023-01-02T00:46:14.252Z,13.04
2023-01-02T00:47:14.273Z,13.07
2023-01-02T00:48:14.258Z,13.09
2023-01-02T00:49:14.037Z,13.09
2023-01-02T00:50:14.161Z,13.11
2023-01-02T00:51:14.166Z,13.17
2023-01-02T00:52:14.237Z,13.15
2023-01-02T00:53:13.965Z,13.09
2023-01-02T00:54:14.136Z,13.12
2023-01-02T00:55:14.124Z,13.15
2023-01-02T00:56:14.204Z,13.17
2023-01-02T00:57:14.124Z,13.15
2023-01-02T00:58:14.148Z,13.18
2023-01-02T00:59:14.077Z,13.17
2023-01-02T01:00:18.502Z,13.18
2023-01-02T01:01:14.208Z,13.22
2023-01-02T01:02:14.166Z,13.21
2023-01-02T01:03:14.054Z,13.21
2023-01-02T01:04:14.166Z,13.17
2023-01-02T01:05:14.020Z,13.17
2023-01-02T01:06:14.012Z,13.15
2023-01-02T01:07:14.020Z,13.15
2023-01-02T01:08:14.099Z,13.07
2023-01-02T01:09:14.081Z,13.11
2023-01-02T01:10:14.011Z,13.11
2023-01-02T01:11:13.856Z,13.14
2023-01-02T01:12:13.883Z,13.12
2023-01-02T01:13:13.872Z,13.17
2023-01-02T01:14:14.016Z,13.11
2023-01-02T01:15:13.838Z,13.18
2023-01-02T01:16:13.894Z,13.17
2023-01-02T01:17:13.702Z,13.24
2023-01-02T01:18:13.953Z,13.24
2023-01-02T01:19:13.791Z,13.21
2023-01-02T01:20:13.782Z,13.21
2023-01-02T01:21:13.774Z,13.27
2023-01-02T01:22:13.754Z,13.27
2023-01-02T01:23:13.892Z,13.27
2023-01-02T01:24:13.739Z,13.30
2023-01-02T01:25:13.740Z,13.29
2023-01-02T01:26:13.885Z,13.30
2023-01-02T01:27:13.706Z,13.41
2023-01-02T01:28:13.701Z,13.37
2023-01-02T01:29:13.836Z,13.37
2023-01-02T01:30:13.699Z,13.43
2023-01-02T01:31:13.780Z,13.46
2023-01-02T01:32:13.714Z,13.46
2023-01-02T01:33:13.706Z,13.41
2023-01-02T01:34:13.717Z,13.37
2023-01-02T01:35:13.727Z,13.41
2023-01-02T01:36:13.719Z,13.44
2023-01-02T01:37:13.724Z,13.43
2023-01-02T01:38:13.717Z,13.40
2023-01-02T01:39:13.594Z,13.46
2023-01-02T01:40:13.734Z,13.44
2023-01-02T01:41:13.439Z,13.52
2023-01-02T01:42:13.530Z,13.49
2023-01-02T01:43:13.439Z,13.46
2023-01-02T01:44:13.482Z,13.47
2023-01-02T01:45:13.579Z,13.49
2023-01-02T01:46:13.549Z,13.49
2023-01-02T01:47:13.377Z,13.49
2023-01-02T01:48:13.352Z,13.52
2023-01-02T01:49:13.341Z,13.43
2023-01-02T01:50:13.372Z,13.46
2023-01-02T01:51:13.337Z,13.51
2023-01-02T01:52:13.322Z,13.47
2023-01-02T01:53:13.308Z,13.51
2023-01-02T01:54:13.293Z,13.43
2023-01-02T01:55:13.307Z,13.40
2023-01-02T01:56:13.286Z,13.44
2023-01-02T01:57:13.289Z,13.43
2023-01-02T01:58:13.328Z,13.43
2023-01-02T01:59:13.325Z,13.43
2023-01-02T02:00:13.342Z,13.41
2023-01-02T02:01:13.527Z,13.38
2023-01-02T02:02:13.461Z,13.36
2023-01-02T02:03:13.331Z,13.33
2023-01-02T02:04:13.316Z,13.36
2023-01-02T02:05:13.178Z,13.32
2023-01-02T02:06:13.410Z,13.37
2023-01-02T02:07:13.359Z,13.33
2023-01-02T02:08:13.356Z,13.36
2023-01-02T02:09:13.353Z,13.38
2023-01-02T02:10:13.343Z,13.37
2023-01-02T02:11:13.417Z,13.38
2023-01-02T02:12:13.353Z,13.40
2023-01-02T02:13:13.252Z,13.32
2023-01-02T02:14:13.317Z,13.27
2023-01-02T02:15:13.306Z,13.30
2023-01-02T02:16:13.407Z,13.30
2023-01-02T02:17:13.358Z,13.27
2023-01-02T02:18:13.264Z,13.22
2023-01-02T02:19:13.255Z,13.22
2023-01-02T02:20:13.243Z,13.20
2023-01-02T02:21:13.157Z,13.12
2023-01-02T02:22:13.224Z,13.07
2023-01-02T02:23:13.232Z,13.11
2023-01-02T02:24:13.142Z,13.04
2023-01-02T02:25:13.207Z,13.03
2023-01-02T02:26:13.122Z,13.04
2023-01-02T02:27:13.112Z,13.00
2023-01-02T02:28:13.185Z,13.00
2023-01-02T02:29:12.913Z,13.02
2023-01-02T02:30:13.186Z,13.02
2023-01-02T02:31:13.100Z,12.99
2023-01-02T02:32:13.102Z,12.95
2023-01-02T02:33:13.105Z,12.95
2023-01-02T02:34:13.041Z,12.93
2023-01-02T02:35:13.124Z,12.92
2023-01-02T02:36:13.054Z,12.88
2023-01-02T02:37:13.054Z,12.92
2023-01-02T02:38:12.989Z,12.87
2023-01-02T02:39:12.999Z,12.87
2023-01-02T02:40:13.002Z,12.88
2023-01-02T02:41:13.076Z,12.88
2023-01-02T02:42:13.001Z,12.88
2023-01-02T02:43:12.931Z,12.88
2023-01-02T02:44:12.927Z,12.92
2023-01-02T02:45:12.994Z,12.89
2023-01-02T02:46:13.043Z,12.93
2023-01-02T02:47:12.937Z,12.97
2023-01-02T02:48:12.942Z,13.00
2023-01-02T02:49:12.938Z,12.96
2023-01-02T02:50:12.861Z,12.99
2023-01-02T02:51:12.932Z,12.96
2023-01-02T02:52:12.851Z,13.00
2023-01-02T02:53:12.867Z,12.99
2023-01-02T02:54:12.863Z,13.00
2023-01-02T02:55:12.878Z,12.97
2023-01-02T02:56:12.879Z,12.96
2023-01-02T02:57:12.861Z,12.99
2023-01-02T02:58:12.782Z,12.93
2023-01-02T02:59:12.623Z,12.93
2023-01-02T03:00:12.764Z,12.92
2023-01-02T03:01:12.861Z,12.87
2023-01-02T03:02:12.993Z,12.85
2023-01-02T03:03:12.877Z,12.81
2023-01-02T03:04:12.711Z,12.84
2023-01-02T03:05:12.702Z,12.79
2023-01-02T03:06:12.695Z,12.77
2023-01-02T03:07:12.776Z,12.69
2023-01-02T03:08:12.705Z,12.67
2023-01-02T03:09:12.705Z,12.64
2023-01-02T03:10:12.701Z,12.66
2023-01-02T03:11:12.543Z,12.63
2023-01-02T03:12:12.706Z,12.60
2023-01-02T03:13:12.733Z,12.63
2023-01-02T03:14:12.575Z,12.57
2023-01-02T03:15:12.567Z,12.60
2023-01-02T03:16:12.650Z,12.60
2023-01-02T03:17:12.443Z,12.56
2023-01-02T03:18:12.407Z,12.52
2023-01-02T03:19:12.491Z,12.48
2023-01-02T03:20:12.495Z,12.56
2023-01-02T03:21:12.437Z,12.56
2023-01-02T03:22:12.479Z,12.57
2023-01-02T03:23:12.468Z,12.56
2023-01-02T03:24:12.391Z,12.57
2023-01-02T03:25:12.394Z,12.57
2023-01-02T03:26:12.322Z,12.60
2023-01-02T03:27:12.281Z,12.60
2023-01-02T03:28:12.305Z,12.62
2023-01-02T03:29:12.293Z,12.63
2023-01-02T03:30:12.265Z,12.60
2023-01-02T03:31:12.333Z,12.66
2023-01-02T03:32:12.218Z,12.70
2023-01-02T03:33:12.204Z,12.70
2023-01-02T03:34:12.199Z,12.78
2023-01-02T03:35:12.231Z,12.78
2023-01-02T03:36:12.204Z,12.84
2023-01-02T03:37:12.292Z,12.81
2023-01-02T03:38:12.226Z,12.78
2023-01-02T03:39:12.227Z,12.79
2023-01-02T03:40:12.233Z,12.84
2023-01-02T03:41:12.325Z,12.85
2023-01-02T03:42:12.218Z,12.85
2023-01-02T03:43:12.315Z,12.93
2023-01-02T03:44:12.386Z,12.99
2023-01-02T03:45:12.297Z,13.00
2023-01-02T03:46:12.427Z,12.99
2023-01-02T03:47:12.282Z,13.02
2023-01-02T03:48:12.270Z,13.02
2023-01-02T03:49:12.348Z,13.04
2023-01-02T03:50:12.197Z,13.02
2023-01-02T03:51:12.212Z,13.03
2023-01-02T03:52:12.215Z,13.07
2023-01-02T03:53:12.220Z,13.04
2023-01-02T03:54:12.158Z,13.07
2023-01-02T03:55:12.256Z,12.99
2023-01-02T03:56:12.178Z,13.04
2023-01-02T03:57:12.273Z,13.02
2023-01-02T03:58:12.143Z,13.02
2023-01-02T03:59:12.128Z,13.04
2023-01-02T04:00:11.951Z,13.04
2023-01-02T04:01:12.210Z,13.06
2023-01-02T04:02:12.321Z,13.04
2023-01-02T04:03:12.160Z,13.07
2023-01-02T04:04:12.118Z,13.03
2023-01-02T04:05:12.029Z,13.07
2023-01-02T04:06:12.105Z,13.02
2023-01-02T04:07:12.028Z,13.02
2023-01-02T04:08:12.053Z,13.00
2023-01-02T04:09:12.039Z,12.99
2023-01-02T04:10:12.049Z,13.03
2023-01-02T04:11:11.981Z,13.00
2023-01-02T04:12:12.063Z,13.02
2023-01-02T04:13:11.991Z,13.00
2023-01-02T04:14:12.085Z,13.00
2023-01-02T04:15:12.011Z,12.96
2023-01-02T04:16:11.967Z,12.96
2023-01-02T04:17:11.987Z,12.89
2023-01-02T04:18:11.897Z,12.95
2023-01-02T04:19:11.884Z,12.88
2023-01-02T04:20:11.875Z,12.88
2023-01-02T04:21:11.891Z,12.89
2023-01-02T04:22:11.905Z,12.84
2023-01-02T04:23:11.991Z,12.84
2023-01-02T04:24:11.756Z,12.89
2023-01-02T04:25:11.768Z,12.93
2023-01-02T04:26:11.928Z,12.96
2023-01-02T04:27:11.772Z,12.99
2023-01-02T04:28:11.933Z,12.97
2023-01-02T04:29:11.584Z,13.00
2023-01-02T04:30:11.921Z,13.02
2023-01-02T04:31:11.881Z,13.11
2023-01-02T04:32:11.731Z,13.12
2023-01-02T04:33:11.735Z,13.14
2023-01-02T04:34:11.756Z,13.18
2023-01-02T04:35:11.789Z,13.27
2023-01-02T04:36:11.663Z,13.27
2023-01-02T04:37:11.530Z,13.29
2023-01-02T04:38:11.621Z,13.29
2023-01-02T04:39:11.716Z,13.33
2023-01-02T04:40:11.668Z,13.33
2023-01-02T04:41:11.616Z,13.33
2023-01-02T04:42:11.645Z,13.40
2023-01-02T04:43:11.606Z,13.32
2023-01-02T04:44:11.635Z,13.29
2023-01-02T04:45:11.769Z,13.27
2023-01-02T04:46:11.651Z,13.24
2023-01-02T04:47:14.373Z,13.25
2023-01-02T04:48:11.586Z,13.27
2023-01-02T04:49:11.604Z,13.27
2023-01-02T04:50:11.549Z,13.22
2023-01-02T04:51:11.399Z,13.25
2023-01-02T04:52:11.529Z,13.30
2023-01-02T04:53:11.412Z,13.30
2023-01-02T04:54:11.506Z,13.27
2023-01-02T04:55:11.543Z,13.27
2023-01-02T04:56:11.579Z,13.38
2023-01-02T04:57:11.533Z,13.40
2023-01-02T04:58:11.525Z,13.37
2023-01-02T04:59:11.333Z,13.40
2023-01-02T05:00:11.302Z,13.37
2023-01-02T05:01:11.609Z,13.37
2023-01-02T05:02:11.482Z,13.41
2023-01-02T05:03:11.388Z,13.30
2023-01-02T05:04:11.224Z,13.33
2023-01-02T05:05:11.244Z,13.37
2023-01-02T05:06:11.251Z,13.38
2023-01-02T05:07:11.212Z,13.38
2023-01-02T05:08:16.178Z,13.43
2023-01-02T05:09:11.145Z,13.44
2023-01-02T05:10:11.177Z,13.49
2023-01-02T05:11:11.179Z,13.51
2023-01-02T05:12:11.175Z,13.55
2023-01-02T05:13:11.158Z,13.55
2023-01-02T05:14:11.117Z,13.61
2023-01-02T05:15:11.177Z,13.59
2023-01-02T05:16:11.232Z,13.62
2023-01-02T05:17:11.271Z,13.56
2023-01-02T05:18:11.183Z,13.56
2023-01-02T05:19:11.194Z,13.56
2023-01-02T05:20:11.126Z,13.52
2023-01-02T05:21:11.129Z,13.54
2023-01-02T05:22:11.126Z,13.52
2023-01-02T05:23:11.202Z,13.47
2023-01-02T05:24:11.182Z,13.49
2023-01-02T05:25:11.181Z,13.46
2023-01-02T05:26:11.075Z,13.54
2023-01-02T05:27:11.214Z,13.52
2023-01-02T05:28:11.179Z,13.47
2023-01-02T05:29:11.175Z,13.44
2023-01-02T05:30:11.176Z,13.44
2023-01-02T05:31:11.164Z,13.40
2023-01-02T05:32:11.106Z,13.37
2023-01-02T05:33:11.106Z,13.37
2023-01-02T05:34:10.974Z,13.30
2023-01-02T05:35:11.131Z,13.32
2023-01-02T05:36:11.042Z,13.32
2023-01-02T05:37:10.892Z,13.33
2023-01-02T05:38:10.914Z,13.33
2023-01-02T05:39:11.021Z,13.32
2023-01-02T05:40:10.830Z,13.30
2023-01-02T05:41:10.912Z,13.33
2023-01-02T05:42:11.019Z,13.36
2023-01-02T05:43:10.891Z,13.38
2023-01-02T05:44:11.002Z,13.37
2023-01-02T05:45:11.007Z,13.29
2023-01-02T05:46:11.048Z,13.30
2023-01-02T05:47:14.918Z,13.30
2023-01-02T05:48:10.996Z,13.24
2023-01-02T05:49:10.939Z,13.22
2023-01-02T05:50:10.735Z,13.29
2023-01-02T05:51:10.747Z,13.27
2023-01-02T05:52:10.906Z,13.24
2023-01-02T05:53:10.732Z,13.24
2023-01-02T05:54:10.820Z,13.32
2023-01-02T05:55:10.636Z,13.30
2023-01-02T05:56:10.674Z,13.32
2023-01-02T05:57:10.648Z,13.37
2023-01-02T05:58:10.701Z,13.40
2023-01-02T05:59:10.635Z,13.38
2023-01-02T06:00:10.614Z,13.43
2023-01-02T06:01:10.596Z,13.44
2023-01-02T06:02:10.685Z,13.46
2023-01-02T06:03:10.722Z,13.51
2023-01-02T06:04:14.655Z,13.46
2023-01-02T06:05:10.634Z,13.49
2023-01-02T06:06:10.605Z,13.54
2023-01-02T06:07:10.515Z,13.55
2023-01-02T06:08:10.528Z,13.51
2023-01-02T06:09:10.713Z,13.55
2023-01-02T06:10:10.521Z,13.47
2023-01-02T06:11:10.599Z,13.54
2023-01-02T06:12:10.516Z,13.49
2023-01-02T06:13:10.488Z,13.51
2023-01-02T06:14:10.614Z,13.51
2023-01-02T06:15:10.505Z,13.52
2023-01-02T06:16:10.735Z,13.47
2023-01-02T06:17:10.803Z,13.46
2023-01-02T06:18:10.438Z,13.51
2023-01-02T06:19:10.457Z,13.54
2023-01-02T06:20:10.416Z,13.55
2023-01-02T06:21:10.433Z,13.52
2023-01-02T06:22:10.372Z,13.55
2023-01-02T06:23:10.379Z,13.55
2023-01-02T06:24:10.415Z,13.49
2023-01-02T06:25:10.481Z,13.46
2023-01-02T06:26:10.784Z,13.52
2023-01-02T06:27:10.457Z,13.56
2023-01-02T06:28:10.388Z,13.52
2023-01-02T06:29:10.328Z,13.54
2023-01-02T06:30:10.263Z,13.52
2023-01-02T06:31:10.653Z,13.47
2023-01-02T06:32:10.333Z,13.49
2023-01-02T06:33:10.297Z,13.46
2023-01-02T06:34:10.295Z,13.46
2023-01-02T06:35:10.243Z,13.46
2023-01-02T06:36:10.218Z,13.43
2023-01-02T06:37:10.655Z,13.43
2023-01-02T06:38:10.245Z,13.40
2023-01-02T06:39:10.267Z,13.43
2023-01-02T06:40:10.211Z,13.40
2023-01-02T06:41:10.323Z,13.40
2023-01-02T06:42:10.286Z,13.36
2023-01-02T06:43:10.351Z,13.38
2023-01-02T06:44:10.145Z,13.29
2023-01-02T06:45:10.151Z,13.33
2023-01-02T06:46:10.219Z,13.36
2023-01-02T06:47:10.118Z,13.38
2023-01-02T06:48:10.142Z,13.29
2023-01-02T06:49:10.116Z,13.32
2023-01-02T06:50:10.074Z,13.37
2023-01-02T06:51:10.087Z,13.30
2023-01-02T06:52:10.056Z,13.32
2023-01-02T06:53:10.146Z,13.29
2023-01-02T06:54:10.047Z,13.27
2023-01-02T06:55:10.060Z,13.20
2023-01-02T06:56:10.100Z,13.24
2023-01-02T06:57:09.996Z,13.18
2023-01-02T06:58:14.622Z,13.22
2023-01-02T06:59:10.000Z,13.18
2023-01-02T07:00:09.949Z,13.15
2023-01-02T07:01:09.991Z,13.17
2023-01-02T07:02:10.000Z,13.11
2023-01-02T07:03:09.913Z,13.11
2023-01-02T07:04:09.869Z,13.09
2023-01-02T07:05:09.926Z,13.04
2023-01-02T07:06:09.985Z,13.11
2023-01-02T07:07:09.856Z,13.09
2023-01-02T07:08:09.833Z,13.06
2023-01-02T07:09:09.840Z,13.06
2023-01-02T07:10:09.811Z,13.04
2023-01-02T07:11:09.784Z,13.04
2023-01-02T07:12:09.797Z,13.04
2023-01-02T07:13:09.785Z,13.02
2023-01-02T07:14:09.808Z,13.04
2023-01-02T07:15:09.807Z,13.04
2023-01-02T07:16:10.005Z,13.04
2023-01-02T07:17:09.804Z,13.02
2023-01-02T07:18:09.676Z,13.04
2023-01-02T07:19:09.716Z,13.03
2023-01-02T07:20:09.702Z,13.03
2023-01-02T07:21:09.886Z,13.00
2023-01-02T07:22:09.772Z,12.96
2023-01-02T07:23:09.716Z,12.93
2023-01-02T07:24:09.646Z,12.99
2023-01-02T07:25:09.694Z,12.99
2023-01-02T07:26:09.719Z,12.97
2023-01-02T07:27:09.619Z,13.00
2023-01-02T07:28:09.636Z,12.97
2023-01-02T07:29:09.616Z,12.96
2023-01-02T07:30:09.914Z,12.93
2023-01-02T07:31:09.638Z,12.95
2023-01-02T07:32:09.760Z,12.88
2023-01-02T07:33:09.550Z,12.88
2023-01-02T07:34:09.570Z,12.89
2023-01-02T07:35:09.563Z,12.87
2023-01-02T07:36:09.531Z,12.82
2023-01-02T07:37:09.542Z,12.82
2023-01-02T07:38:09.527Z,12.82
2023-01-02T07:39:09.478Z,12.85
2023-01-02T07:40:09.486Z,12.85
2023-01-02T07:41:09.441Z,12.84
2023-01-02T07:42:09.431Z,12.84
2023-01-02T07:43:09.463Z,12.78
2023-01-02T07:44:09.553Z,12.75
2023-01-02T07:45:09.702Z,12.77
2023-01-02T07:46:09.761Z,12.67
2023-01-02T07:47:09.709Z,12.64
2023-01-02T07:48:09.709Z,12.66
2023-01-02T07:49:09.718Z,12.64
2023-01-02T07:50:09.455Z,12.66
2023-01-02T07:51:09.465Z,12.62
2023-01-02T07:52:09.341Z,12.64
2023-01-02T07:53:09.343Z,12.59
2023-01-02T07:54:09.311Z,12.67
2023-01-02T07:55:09.337Z,12.64
2023-01-02T07:56:09.502Z,12.66
2023-01-02T07:57:09.529Z,12.63
2023-01-02T07:58:09.520Z,12.63
2023-01-02T07:59:09.261Z,12.59
2023-01-02T08:00:09.489Z,12.64
2023-01-02T08:01:09.592Z,12.69
2023-01-02T08:02:09.548Z,12.69
2023-01-02T08:03:09.456Z,12.71
2023-01-02T08:04:09.497Z,12.66
2023-01-02T08:05:09.321Z,12.69
2023-01-02T08:06:09.436Z,12.70
2023-01-02T08:07:09.423Z,12.64
2023-01-02T08:08:09.429Z,12.62
2023-01-02T08:09:09.177Z,12.63
2023-01-02T08:10:09.182Z,12.63
2023-01-02T08:11:09.430Z,12.63
2023-01-02T08:12:09.417Z,12.66
2023-01-02T08:13:09.413Z,12.69
2023-01-02T08:14:09.279Z,12.67
2023-01-02T08:15:09.407Z,12.66
2023-01-02T08:16:09.404Z,12.67
2023-01-02T08:17:09.430Z,12.63
2023-01-02T08:18:09.184Z,12.64
2023-01-02T08:19:09.197Z,12.66
2023-01-02T08:20:09.434Z,12.69
2023-01-02T08:21:09.191Z,12.69
2023-01-02T08:22:09.213Z,12.71
2023-01-02T08:23:09.191Z,12.74
2023-01-02T08:24:09.190Z,12.71
2023-01-02T08:25:09.182Z,12.74
2023-01-02T08:26:09.178Z,12.75
2023-01-02T08:27:09.185Z,12.67
2023-01-02T08:28:09.179Z,12.71
2023-01-02T08:29:08.974Z,12.74
2023-01-02T08:30:08.951Z,12.82
2023-01-02T08:31:09.273Z,12.78
2023-01-02T08:32:09.119Z,12.77
2023-01-02T08:33:09.022Z,12.74
2023-01-02T08:34:09.047Z,12.78
2023-01-02T08:35:09.198Z,12.79
2023-01-02T08:36:09.125Z,12.77
2023-01-02T08:37:09.123Z,12.78
2023-01-02T08:38:09.166Z,12.69
2023-01-02T08:39:09.179Z,12.71
2023-01-02T08:40:08.969Z,12.77
2023-01-02T08:41:09.021Z,12.81
2023-01-02T08:42:09.241Z,12.78
2023-01-02T08:43:09.035Z,12.82
2023-01-02T08:44:09.040Z,12.87
2023-01-02T08:45:08.809Z,12.88
2023-01-02T08:46:08.787Z,12.92
2023-01-02T08:47:09.107Z,12.93
2023-01-02T08:48:19.924Z,12.89
2023-01-02T08:49:08.910Z,12.87
2023-01-02T08:50:08.948Z,12.84
2023-01-02T08:51:08.973Z,12.92
2023-01-02T08:52:08.999Z,12.89
2023-01-02T08:53:12.716Z,12.89
2023-01-02T08:54:08.699Z,12.88
2023-01-02T08:55:08.677Z,12.95
2023-01-02T08:56:08.850Z,12.97
2023-01-02T08:57:08.642Z,13.02
2023-01-02T08:58:08.629Z,13.00
2023-01-02T08:59:08.630Z,13.04
2023-01-02T09:00:08.600Z,12.99
2023-01-02T09:01:08.617Z,13.04
2023-01-02T09:02:08.759Z,13.02
2023-01-02T09:03:08.610Z,13.00
2023-01-02T09:04:12.462Z,13.00
2023-01-02T09:05:08.549Z,12.96
2023-01-02T09:06:08.617Z,13.00
2023-01-02T09:07:08.737Z,12.97
2023-01-02T09:08:08.528Z,13.00
2023-01-02T09:09:12.177Z,13.02
2023-01-02T09:10:08.486Z,12.96
2023-01-02T09:11:08.446Z,13.00
2023-01-02T09:12:08.506Z,13.00
2023-01-02T09:13:08.481Z,13.03
2023-01-02T09:14:08.510Z,13.07
2023-01-02T09:15:08.424Z,13.12
2023-01-02T09:16:08.684Z,13.11
2023-01-02T09:17:08.409Z,13.12
2023-01-02T09:18:08.446Z,13.17
2023-01-02T09:19:08.379Z,13.14
2023-01-02T09:20:08.438Z,13.20
2023-01-02T09:21:08.425Z,13.18
2023-01-02T09:22:08.355Z,13.17
2023-01-02T09:23:08.318Z,13.21
2023-01-02T09:24:08.769Z,13.18
2023-01-02T09:25:08.315Z,13.17
2023-01-02T09:26:08.394Z,13.17
2023-01-02T09:27:08.495Z,13.24
2023-01-02T09:28:08.485Z,13.21
2023-01-02T09:29:08.492Z,13.21
2023-01-02T09:30:08.509Z,13.20
2023-01-02T09:31:12.008Z,13.22
2023-01-02T09:32:08.262Z,13.20
2023-01-02T09:33:08.228Z,13.15
2023-01-02T09:34:08.343Z,13.18
2023-01-02T09:35:08.613Z,13.17
2023-01-02T09:36:08.626Z,13.14
2023-01-02T09:37:10.269Z,13.12
2023-01-02T09:38:08.374Z,13.04
2023-01-02T09:39:08.278Z,12.99
2023-01-02T09:40:08.165Z,12.99
2023-01-02T09:41:08.131Z,12.89
2023-01-02T09:42:08.416Z,12.92
2023-01-02T09:43:08.410Z,12.92
2023-01-02T09:44:08.417Z,12.88
2023-01-02T09:45:08.987Z,12.87
2023-01-02T09:46:08.451Z,12.88
2023-01-02T09:47:08.196Z,12.85
2023-01-02T09:48:08.193Z,12.77
2023-01-02T09:49:08.186Z,12.74
2023-01-02T09:50:08.068Z,12.63
2023-01-02T09:51:08.205Z,12.63
2023-01-02T09:52:08.418Z,12.67
2023-01-02T09:53:08.186Z,12.60
2023-01-02T09:54:08.031Z,12.62
2023-01-02T09:55:07.973Z,12.60
2023-01-02T09:56:07.978Z,12.49
2023-01-02T09:57:07.967Z,12.57
2023-01-02T09:58:08.145Z,12.49
2023-01-02T09:59:08.130Z,12.46
2023-01-02T10:00:07.916Z,12.51
2023-01-02T10:01:08.123Z,12.52
2023-01-02T10:02:08.034Z,12.42
2023-01-02T10:03:08.800Z,12.42
2023-01-02T10:04:07.922Z,12.37
2023-01-02T10:05:07.898Z,12.44
2023-01-02T10:06:07.921Z,12.39
2023-01-02T10:07:07.831Z,12.46
2023-01-02T10:08:07.891Z,12.48
2023-01-02T10:09:08.027Z,12.51
2023-01-02T10:10:07.847Z,12.59
2023-01-02T10:11:07.813Z,12.59
2023-01-02T10:12:07.869Z,12.54
2023-01-02T10:13:07.788Z,12.59
2023-01-02T10:14:18.935Z,12.59
2023-01-02T10:15:07.757Z,12.60
2023-01-02T10:16:07.878Z,12.60
2023-01-02T10:17:07.768Z,12.56
2023-01-02T10:18:07.766Z,12.57
2023-01-02T10:19:07.738Z,12.60
2023-01-02T10:20:07.722Z,12.60
2023-01-02T10:21:08.013Z,12.56
2023-01-02T10:22:07.993Z,12.52
2023-01-02T10:23:07.959Z,12.57
2023-01-02T10:24:07.726Z,12.54
2023-01-02T10:25:07.712Z,12.49
2023-01-02T10:26:07.659Z,12.46
2023-01-02T10:27:07.656Z,12.37
2023-01-02T10:28:07.685Z,12.33
2023-01-02T10:29:07.612Z,12.30
2023-01-02T10:30:07.654Z,12.30
2023-01-02T10:31:07.897Z,12.34
2023-01-02T10:32:07.602Z,12.38
2023-01-02T10:33:07.642Z,12.34
2023-01-02T10:34:07.613Z,12.26
2023-01-02T10:35:07.541Z,12.26
2023-01-02T10:36:07.593Z,12.26
2023-01-02T10:37:08.217Z,12.21
2023-01-02T10:38:07.527Z,12.09
2023-01-02T10:39:07.524Z,12.09
2023-01-02T10:40:07.550Z,12.06
2023-01-02T10:41:07.518Z,12.11
2023-01-02T10:42:07.523Z,12.04
2023-01-02T10:43:07.467Z,12.08
2023-01-02T10:44:07.468Z,12.01
2023-01-02T10:45:07.439Z,11.99
2023-01-02T10:46:07.539Z,11.94
2023-01-02T10:47:07.468Z,11.83
2023-01-02T10:48:07.412Z,11.78
2023-01-02T10:49:07.373Z,11.77
2023-01-02T10:50:07.367Z,11.80
2023-01-02T10:51:07.430Z,11.80
2023-01-02T10:52:07.386Z,11.82
2023-01-02T10:53:07.362Z,11.78
2023-01-02T10:54:07.593Z,11.77
2023-01-02T10:55:07.325Z,11.78
2023-01-02T10:56:07.365Z,11.72
2023-01-02T10:57:07.357Z,11.70
2023-01-02T10:58:07.550Z,11.71
2023-01-02T10:59:07.299Z,11.68
2023-01-02T11:00:07.268Z,11.68
2023-01-02T11:01:07.286Z,11.65
2023-01-02T11:02:07.422Z,11.62
2023-01-02T11:03:07.299Z,11.56
2023-01-02T11:04:07.446Z,11.57
2023-01-02T11:05:07.208Z,11.54
2023-01-02T11:06:23.549Z,11.56
2023-01-02T11:07:07.398Z,11.56
2023-01-02T11:08:07.531Z,11.59
2023-01-02T11:09:07.424Z,11.53
2023-01-02T11:10:07.182Z,11.56
2023-01-02T11:11:07.135Z,11.59
2023-01-02T11:12:07.528Z,11.59
2023-01-02T11:13:07.118Z,11.61
2023-01-02T11:14:07.142Z,11.64
2023-01-02T11:15:07.137Z,11.61
2023-01-02T11:16:07.129Z,11.64
2023-01-02T11:17:07.083Z,11.56
2023-01-02T11:18:07.078Z,11.59
2023-01-02T11:19:07.208Z,11.54
2023-01-02T11:20:07.078Z,11.59
2023-01-02T11:21:07.064Z,11.54
2023-01-02T11:22:07.363Z,11.52
2023-01-02T11:23:07.077Z,11.52
2023-01-02T11:24:07.001Z,11.43
2023-01-02T11:25:07.054Z,11.38
2023-01-02T11:26:07.027Z,11.41
2023-01-02T11:27:06.966Z,11.36
2023-01-02T11:28:06.996Z,11.39
2023-01-02T11:29:06.967Z,11.39
2023-01-02T11:30:07.014Z,11.38
2023-01-02T11:31:07.021Z,11.39
2023-01-02T11:32:07.095Z,11.39
2023-01-02T11:33:06.911Z,11.44
2023-01-02T11:34:06.941Z,11.46
2023-01-02T11:35:06.953Z,11.43
2023-01-02T11:36:07.052Z,11.46
2023-01-02T11:37:07.041Z,11.44
2023-01-02T11:38:06.868Z,11.39
2023-01-02T11:39:06.867Z,11.44
2023-01-02T11:40:06.887Z,11.34
2023-01-02T11:41:07.132Z,11.32
2023-01-02T11:42:06.841Z,11.29
2023-01-02T11:43:06.838Z,11.29
2023-01-02T11:44:06.835Z,11.25
2023-01-02T11:45:06.779Z,11.25
2023-01-02T11:46:06.934Z,11.28
2023-01-02T11:47:07.052Z,11.27
2023-01-02T11:48:07.071Z,11.27
2023-01-02T11:49:07.096Z,11.20
2023-01-02T11:50:06.778Z,11.20
2023-01-02T11:51:07.107Z,11.20
2023-01-02T11:52:06.760Z,11.14
2023-01-02T11:53:06.717Z,11.17
2023-01-02T11:54:06.767Z,11.17
2023-01-02T11:55:06.703Z,11.16
2023-01-02T11:56:06.855Z,11.14
2023-01-02T11:57:06.855Z,11.17
2023-01-02T11:58:06.702Z,11.13
2023-01-02T11:59:06.832Z,11.10
2023-01-02T12:00:06.631Z,11.06
2023-01-02T12:01:06.721Z,11.02
2023-01-02T12:02:06.804Z,10.94
2023-01-02T12:03:06.771Z,10.91
2023-01-02T12:04:06.749Z,10.95
2023-01-02T12:05:06.618Z,10.94
2023-01-02T12:06:06.771Z,10.94
2023-01-02T12:07:06.787Z,10.98
2023-01-02T12:08:06.605Z,10.98
2023-01-02T12:09:06.584Z,10.99
2023-01-02T12:10:06.583Z,10.96
2023-01-02T12:11:06.535Z,10.98
2023-01-02T12:12:06.537Z,10.95
2023-01-02T12:13:06.867Z,10.98
2023-01-02T12:14:06.512Z,10.94
2023-01-02T12:15:06.508Z,10.91
2023-01-02T12:16:06.484Z,10.89
2023-01-02T12:17:06.493Z,10.89
2023-01-02T12:18:06.467Z,10.91
2023-01-02T12:19:06.471Z,10.88
2023-01-02T12:20:06.561Z,10.91
2023-01-02T12:21:06.410Z,10.88
2023-01-02T12:22:06.423Z,10.94
2023-01-02T12:23:06.412Z,10.88
2023-01-02T12:24:06.430Z,10.89
2023-01-02T12:25:06.709Z,10.86
2023-01-02T12:26:09.420Z,10.84
2023-01-02T12:27:06.395Z,10.84
2023-01-02T12:28:06.610Z,10.86
2023-01-02T12:29:06.351Z,10.81
2023-01-02T12:30:06.335Z,10.86
2023-01-02T12:31:06.313Z,10.84
2023-01-02T12:32:06.986Z,10.92
2023-01-02T12:33:06.668Z,10.88
2023-01-02T12:34:06.694Z,10.91
2023-01-02T12:35:06.494Z,10.92
2023-01-02T12:36:06.525Z,10.94
2023-01-02T12:37:06.553Z,10.92
2023-01-02T12:38:06.583Z,10.83
2023-01-02T12:39:06.366Z,10.83
2023-01-02T12:40:06.246Z,10.80
2023-01-02T12:41:06.347Z,10.80
2023-01-02T12:42:06.392Z,10.77
2023-01-02T12:43:06.400Z,10.76
2023-01-02T12:44:06.485Z,10.74
2023-01-02T12:45:06.579Z,10.76
2023-01-02T12:46:06.169Z,10.73
2023-01-02T12:47:06.449Z,10.76
2023-01-02T12:48:06.436Z,10.76
2023-01-02T12:49:06.401Z,10.73
2023-01-02T12:50:06.397Z,10.70
2023-01-02T12:51:06.409Z,10.68
2023-01-02T12:52:06.394Z,10.65